sensor_id;sensor_type;location;lat;lon;timestamp;P1;durP1;ratioP1;P2;durP2;ratioP2
56299;SDS011;42209;6.376;-10.782;2023-12-04T00:00:04;25.00;;;14.75;;
56299;SDS011;42209;6.376;-10.782;2023-12-04T00:02:39;24.60;;;15.00;;
56299;SDS011;42209;6.376;-10.782;2023-12-04T00:05:08;23.95;;;15.50;;
56299;SDS011;42209;6.376;-10.782;2023-12-04T00:07:36;25.55;;;15.02;;
56299;SDS011;42209;6.376;-10.782;2023-12-04T00:10:05;26.27;;;16.65;;
56299;SDS011;42209;6.376;-10.782;2023-12-04T00:12:34;23.45;;;16.35;;
56299;SDS011;42209;6.376;-10.782;2023-12-04T00:15:02;24.35;;;15.23;;
56299;SDS011;42209;6.376;-10.782;2023-12-04T00:17:30;27.63;;;16.70;;
56299;SDS011;42209;6.376;-10.782;2023-12-04T00:19:59;22.83;;;15.77;;
56299;SDS011;42209;6.376;-10.782;2023-12-04T00:22:28;27.50;;;16.63;;
56299;SDS011;42209;6.376;-10.782;2023-12-04T00:24:56;25.40;;;15.35;;
56299;SDS011;42209;6.376;-10.782;2023-12-04T00:27:24;26.33;;;17.10;;
56299;SDS011;42209;6.376;-10.782;2023-12-04T00:29:53;28.38;;;16.92;;
56299;SDS011;42209;6.376;-10.782;2023-12-04T00:32:21;25.13;;;16.27;;
56299;SDS011;42209;6.376;-10.782;2023-12-04T00:34:51;25.10;;;16.02;;
56299;SDS011;42209;6.376;-10.782;2023-12-04T00:37:19;24.25;;;16.00;;
56299;SDS011;42209;6.376;-10.782;2023-12-04T00:39:48;28.10;;;16.00;;
56299;SDS011;42209;6.376;-10.782;2023-12-04T00:42:16;24.42;;;15.90;;
56299;SDS011;42209;6.376;-10.782;2023-12-04T00:44:44;26.45;;;16.50;;
56299;SDS011;42209;6.376;-10.782;2023-12-04T00:47:13;25.45;;;17.42;;
56299;SDS011;42209;6.376;-10.782;2023-12-04T00:49:41;23.92;;;16.23;;
56299;SDS011;42209;6.376;-10.782;2023-12-04T00:52:10;22.52;;;15.98;;
56299;SDS011;42209;6.376;-10.782;2023-12-04T00:54:39;24.33;;;16.48;;
56299;SDS011;42209;6.376;-10.782;2023-12-04T00:57:08;26.23;;;18.02;;
56299;SDS011;42209;6.376;-10.782;2023-12-04T01:02:05;31.98;;;18.40;;
56299;SDS011;42209;6.376;-10.782;2023-12-04T01:04:34;27.35;;;17.20;;
56299;SDS011;42209;6.376;-10.782;2023-12-04T01:07:03;26.77;;;17.80;;
56299;SDS011;42209;6.376;-10.782;2023-12-04T01:09:31;24.60;;;17.48;;
56299;SDS011;42209;6.376;-10.782;2023-12-04T01:12:02;26.48;;;17.15;;
56299;SDS011;42209;6.376;-10.782;2023-12-04T01:14:31;26.77;;;17.05;;
56299;SDS011;42209;6.376;-10.782;2023-12-04T01:19:27;24.35;;;18.02;;
56299;SDS011;42209;6.376;-10.782;2023-12-04T01:21:56;27.55;;;17.52;;
56299;SDS011;42209;6.376;-10.782;2023-12-04T01:24:24;30.70;;;18.45;;
56299;SDS011;42209;6.376;-10.782;2023-12-04T01:26:52;24.30;;;18.23;;
56299;SDS011;42209;6.376;-10.782;2023-12-04T01:29:21;26.33;;;17.25;;
56299;SDS011;42209;6.376;-10.782;2023-12-04T01:31:49;25.17;;;17.25;;
56299;SDS011;42209;6.376;-10.782;2023-12-04T01:34:17;26.00;;;19.02;;
56299;SDS011;42209;6.376;-10.782;2023-12-04T01:36:46;28.77;;;16.65;;
56299;SDS011;42209;6.376;-10.782;2023-12-04T01:39:14;22.95;;;16.15;;
56299;SDS011;42209;6.376;-10.782;2023-12-04T01:41:43;24.95;;;16.20;;
56299;SDS011;42209;6.376;-10.782;2023-12-04T01:46:39;25.90;;;16.88;;
56299;SDS011;42209;6.376;-10.782;2023-12-04T01:49:09;20.00;;;14.85;;
56299;SDS011;42209;6.376;-10.782;2023-12-04T01:54:06;21.50;;;13.98;;
56299;SDS011;42209;6.376;-10.782;2023-12-04T01:56:35;22.80;;;16.83;;
56299;SDS011;42209;6.376;-10.782;2023-12-04T01:59:05;23.40;;;13.93;;
56299;SDS011;42209;6.376;-10.782;2023-12-04T02:01:34;23.35;;;15.70;;
56299;SDS011;42209;6.376;-10.782;2023-12-04T02:04:04;21.27;;;13.75;;
56299;SDS011;42209;6.376;-10.782;2023-12-04T02:06:33;19.02;;;12.18;;
56299;SDS011;42209;6.376;-10.782;2023-12-04T02:09:01;18.60;;;13.35;;
56299;SDS011;42209;6.376;-10.782;2023-12-04T02:11:30;21.48;;;12.93;;
56299;SDS011;42209;6.376;-10.782;2023-12-04T02:13:58;21.30;;;13.70;;
56299;SDS011;42209;6.376;-10.782;2023-12-04T02:16:26;17.75;;;13.25;;
56299;SDS011;42209;6.376;-10.782;2023-12-04T02:18:58;18.85;;;13.50;;
56299;SDS011;42209;6.376;-10.782;2023-12-04T02:21:26;16.85;;;12.60;;
56299;SDS011;42209;6.376;-10.782;2023-12-04T02:23:55;16.77;;;11.40;;
56299;SDS011;42209;6.376;-10.782;2023-12-04T02:26:24;15.45;;;11.10;;
56299;SDS011;42209;6.376;-10.782;2023-12-04T02:29:00;18.60;;;12.02;;
56299;SDS011;42209;6.376;-10.782;2023-12-04T02:31:32;14.40;;;10.60;;
56299;SDS011;42209;6.376;-10.782;2023-12-04T02:34:04;16.80;;;11.00;;
56299;SDS011;42209;6.376;-10.782;2023-12-04T02:36:35;15.43;;;11.45;;
56299;SDS011;42209;6.376;-10.782;2023-12-04T02:39:05;17.52;;;10.98;;
56299;SDS011;42209;6.376;-10.782;2023-12-04T02:44:02;14.05;;;9.77;;
56299;SDS011;42209;6.376;-10.782;2023-12-04T02:46:30;14.48;;;10.98;;
56299;SDS011;42209;6.376;-10.782;2023-12-04T02:48:58;12.88;;;10.00;;
56299;SDS011;42209;6.376;-10.782;2023-12-04T02:51:27;12.93;;;9.65;;
56299;SDS011;42209;6.376;-10.782;2023-12-04T02:53:56;13.23;;;9.60;;
56299;SDS011;42209;6.376;-10.782;2023-12-04T02:56:24;16.23;;;11.38;;
56299;SDS011;42209;6.376;-10.782;2023-12-04T02:58:53;16.40;;;10.65;;
56299;SDS011;42209;6.376;-10.782;2023-12-04T03:01:21;15.98;;;11.00;;
56299;SDS011;42209;6.376;-10.782;2023-12-04T03:03:50;12.52;;;9.60;;
56299;SDS011;42209;6.376;-10.782;2023-12-04T03:08:46;12.25;;;9.30;;
56299;SDS011;42209;6.376;-10.782;2023-12-04T03:13:43;10.63;;;8.23;;
56299;SDS011;42209;6.376;-10.782;2023-12-04T03:16:15;11.88;;;9.35;;
56299;SDS011;42209;6.376;-10.782;2023-12-04T03:18:44;13.70;;;9.38;;
56299;SDS011;42209;6.376;-10.782;2023-12-04T03:21:13;12.10;;;8.77;;
56299;SDS011;42209;6.376;-10.782;2023-12-04T03:23:41;12.48;;;9.27;;
56299;SDS011;42209;6.376;-10.782;2023-12-04T03:26:09;11.70;;;7.57;;
56299;SDS011;42209;6.376;-10.782;2023-12-04T03:28:38;13.63;;;9.05;;
56299;SDS011;42209;6.376;-10.782;2023-12-04T03:31:07;11.48;;;8.55;;
56299;SDS011;42209;6.376;-10.782;2023-12-04T03:33:35;11.15;;;7.85;;
56299;SDS011;42209;6.376;-10.782;2023-12-04T03:36:04;9.48;;;8.13;;
56299;SDS011;42209;6.376;-10.782;2023-12-04T03:38:33;12.65;;;9.02;;
56299;SDS011;42209;6.376;-10.782;2023-12-04T03:41:01;13.02;;;8.38;;
56299;SDS011;42209;6.376;-10.782;2023-12-04T03:43:30;10.00;;;7.43;;
56299;SDS011;42209;6.376;-10.782;2023-12-04T03:45:58;11.48;;;8.70;;
56299;SDS011;42209;6.376;-10.782;2023-12-04T03:48:26;10.02;;;7.93;;
56299;SDS011;42209;6.376;-10.782;2023-12-04T03:50:55;9.75;;;7.90;;
56299;SDS011;42209;6.376;-10.782;2023-12-04T03:53:23;11.23;;;7.53;;
56299;SDS011;42209;6.376;-10.782;2023-12-04T03:55:52;11.13;;;7.78;;
56299;SDS011;42209;6.376;-10.782;2023-12-04T03:58:20;9.40;;;7.07;;
56299;SDS011;42209;6.376;-10.782;2023-12-04T04:00:48;10.45;;;7.32;;
56299;SDS011;42209;6.376;-10.782;2023-12-04T04:03:17;8.60;;;7.18;;
56299;SDS011;42209;6.376;-10.782;2023-12-04T04:05:45;9.07;;;7.35;;
56299;SDS011;42209;6.376;-10.782;2023-12-04T04:08:14;8.55;;;6.75;;
56299;SDS011;42209;6.376;-10.782;2023-12-04T04:10:42;10.10;;;5.97;;
56299;SDS011;42209;6.376;-10.782;2023-12-04T04:13:10;11.23;;;7.35;;
56299;SDS011;42209;6.376;-10.782;2023-12-04T04:15:39;10.27;;;7.10;;
56299;SDS011;42209;6.376;-10.782;2023-12-04T04:18:07;9.73;;;6.53;;
56299;SDS011;42209;6.376;-10.782;2023-12-04T04:20:36;8.93;;;7.30;;
56299;SDS011;42209;6.376;-10.782;2023-12-04T04:23:04;9.93;;;7.55;;
56299;SDS011;42209;6.376;-10.782;2023-12-04T04:25:33;8.82;;;6.65;;
56299;SDS011;42209;6.376;-10.782;2023-12-04T04:28:01;6.88;;;5.75;;
56299;SDS011;42209;6.376;-10.782;2023-12-04T04:30:30;8.32;;;6.45;;
56299;SDS011;42209;6.376;-10.782;2023-12-04T04:32:58;9.93;;;6.43;;
56299;SDS011;42209;6.376;-10.782;2023-12-04T04:35:26;8.93;;;6.45;;
56299;SDS011;42209;6.376;-10.782;2023-12-04T04:37:55;7.63;;;6.18;;
56299;SDS011;42209;6.376;-10.782;2023-12-04T04:40:23;9.05;;;5.82;;
56299;SDS011;42209;6.376;-10.782;2023-12-04T04:42:51;9.05;;;6.38;;
56299;SDS011;42209;6.376;-10.782;2023-12-04T04:45:20;10.18;;;6.93;;
56299;SDS011;42209;6.376;-10.782;2023-12-04T04:47:48;7.68;;;5.68;;
56299;SDS011;42209;6.376;-10.782;2023-12-04T04:50:16;8.55;;;5.40;;
56299;SDS011;42209;6.376;-10.782;2023-12-04T04:52:45;6.30;;;5.53;;
56299;SDS011;42209;6.376;-10.782;2023-12-04T04:55:13;8.20;;;6.97;;
56299;SDS011;42209;6.376;-10.782;2023-12-04T04:58:01;7.72;;;5.80;;
56299;SDS011;42209;6.376;-10.782;2023-12-04T05:00:30;7.90;;;6.03;;
56299;SDS011;42209;6.376;-10.782;2023-12-04T05:02:59;7.63;;;5.68;;
56299;SDS011;42209;6.376;-10.782;2023-12-04T05:05:27;7.20;;;6.07;;
56299;SDS011;42209;6.376;-10.782;2023-12-04T05:07:56;6.22;;;5.03;;
56299;SDS011;42209;6.376;-10.782;2023-12-04T05:10:24;7.32;;;5.82;;
56299;SDS011;42209;6.376;-10.782;2023-12-04T05:12:53;8.05;;;5.55;;
56299;SDS011;42209;6.376;-10.782;2023-12-04T05:15:22;8.43;;;6.30;;
56299;SDS011;42209;6.376;-10.782;2023-12-04T05:17:51;6.55;;;5.15;;
56299;SDS011;42209;6.376;-10.782;2023-12-04T05:20:19;6.18;;;5.10;;
56299;SDS011;42209;6.376;-10.782;2023-12-04T05:22:48;8.90;;;5.55;;
56299;SDS011;42209;6.376;-10.782;2023-12-04T05:25:17;8.80;;;6.00;;
56299;SDS011;42209;6.376;-10.782;2023-12-04T05:27:45;7.15;;;5.13;;
56299;SDS011;42209;6.376;-10.782;2023-12-04T05:30:16;6.60;;;4.88;;
56299;SDS011;42209;6.376;-10.782;2023-12-04T05:32:45;5.72;;;4.50;;
56299;SDS011;42209;6.376;-10.782;2023-12-04T05:35:14;6.93;;;5.10;;
56299;SDS011;42209;6.376;-10.782;2023-12-04T05:37:43;9.40;;;5.78;;
56299;SDS011;42209;6.376;-10.782;2023-12-04T05:40:11;7.50;;;4.93;;
56299;SDS011;42209;6.376;-10.782;2023-12-04T05:42:40;7.30;;;5.65;;
56299;SDS011;42209;6.376;-10.782;2023-12-04T05:45:08;7.65;;;4.78;;
56299;SDS011;42209;6.376;-10.782;2023-12-04T05:47:37;8.18;;;4.55;;
56299;SDS011;42209;6.376;-10.782;2023-12-04T05:50:05;7.55;;;4.47;;
56299;SDS011;42209;6.376;-10.782;2023-12-04T05:52:34;6.22;;;4.75;;
56299;SDS011;42209;6.376;-10.782;2023-12-04T05:55:03;6.18;;;4.65;;
56299;SDS011;42209;6.376;-10.782;2023-12-04T06:00:00;6.20;;;4.57;;
56299;SDS011;42209;6.376;-10.782;2023-12-04T06:02:29;7.30;;;5.25;;
56299;SDS011;42209;6.376;-10.782;2023-12-04T06:04:58;6.90;;;4.65;;
56299;SDS011;42209;6.376;-10.782;2023-12-04T06:07:26;6.68;;;4.57;;
56299;SDS011;42209;6.376;-10.782;2023-12-04T06:09:54;5.47;;;4.40;;
56299;SDS011;42209;6.376;-10.782;2023-12-04T06:12:23;6.95;;;5.97;;
56299;SDS011;42209;6.376;-10.782;2023-12-04T06:14:51;6.13;;;4.38;;
56299;SDS011;42209;6.376;-10.782;2023-12-04T06:17:19;4.68;;;3.63;;
56299;SDS011;42209;6.376;-10.782;2023-12-04T06:19:48;6.88;;;4.55;;
56299;SDS011;42209;6.376;-10.782;2023-12-04T06:22:16;9.20;;;4.43;;
56299;SDS011;42209;6.376;-10.782;2023-12-04T06:27:15;13.55;;;4.63;;
56299;SDS011;42209;6.376;-10.782;2023-12-04T06:29:44;6.32;;;4.57;;
56299;SDS011;42209;6.376;-10.782;2023-12-04T06:32:16;8.23;;;4.30;;
56299;SDS011;42209;6.376;-10.782;2023-12-04T06:37:13;5.57;;;4.10;;
56299;SDS011;42209;6.376;-10.782;2023-12-04T06:42:12;6.00;;;4.18;;
56299;SDS011;42209;6.376;-10.782;2023-12-04T06:47:09;6.38;;;4.18;;
56299;SDS011;42209;6.376;-10.782;2023-12-04T06:49:40;6.72;;;4.15;;
56299;SDS011;42209;6.376;-10.782;2023-12-04T06:52:08;6.82;;;4.93;;
56299;SDS011;42209;6.376;-10.782;2023-12-04T06:54:36;4.78;;;3.80;;
56299;SDS011;42209;6.376;-10.782;2023-12-04T06:57:05;5.68;;;3.90;;
56299;SDS011;42209;6.376;-10.782;2023-12-04T07:05:14;5.13;;;3.25;;
56299;SDS011;42209;6.376;-10.782;2023-12-04T07:10:11;13.07;;;3.83;;
56299;SDS011;42209;6.376;-10.782;2023-12-04T07:12:39;8.18;;;4.68;;
56299;SDS011;42209;6.376;-10.782;2023-12-04T07:15:11;10.52;;;4.97;;
56299;SDS011;42209;6.376;-10.782;2023-12-04T07:20:08;12.65;;;4.85;;
56299;SDS011;42209;6.376;-10.782;2023-12-04T07:22:37;9.98;;;5.25;;
56299;SDS011;42209;6.376;-10.782;2023-12-04T07:25:06;9.98;;;5.07;;
56299;SDS011;42209;6.376;-10.782;2023-12-04T07:27:34;10.20;;;4.60;;
56299;SDS011;42209;6.376;-10.782;2023-12-04T07:30:03;8.75;;;4.47;;
56299;SDS011;42209;6.376;-10.782;2023-12-04T07:32:32;8.75;;;5.03;;
56299;SDS011;42209;6.376;-10.782;2023-12-04T07:35:00;10.63;;;4.50;;
56299;SDS011;42209;6.376;-10.782;2023-12-04T07:37:29;11.02;;;5.35;;
56299;SDS011;42209;6.376;-10.782;2023-12-04T07:39:57;7.25;;;4.60;;
56299;SDS011;42209;6.376;-10.782;2023-12-04T07:42:26;8.75;;;4.90;;
56299;SDS011;42209;6.376;-10.782;2023-12-04T07:44:54;9.13;;;5.60;;
56299;SDS011;42209;6.376;-10.782;2023-12-04T07:47:22;7.57;;;4.80;;
56299;SDS011;42209;6.376;-10.782;2023-12-04T07:49:52;9.65;;;4.53;;
56299;SDS011;42209;6.376;-10.782;2023-12-04T07:52:20;8.75;;;4.88;;
56299;SDS011;42209;6.376;-10.782;2023-12-04T07:54:49;8.75;;;5.50;;
56299;SDS011;42209;6.376;-10.782;2023-12-04T07:57:18;10.00;;;4.43;;
56299;SDS011;42209;6.376;-10.782;2023-12-04T07:59:46;6.93;;;4.53;;
56299;SDS011;42209;6.376;-10.782;2023-12-04T08:02:18;10.52;;;3.90;;
56299;SDS011;42209;6.376;-10.782;2023-12-04T08:04:46;8.75;;;4.80;;
56299;SDS011;42209;6.376;-10.782;2023-12-04T08:07:15;8.63;;;4.85;;
56299;SDS011;42209;6.376;-10.782;2023-12-04T08:09:43;7.85;;;5.00;;
56299;SDS011;42209;6.376;-10.782;2023-12-04T08:12:12;7.35;;;4.63;;
56299;SDS011;42209;6.376;-10.782;2023-12-04T08:14:40;8.70;;;5.35;;
56299;SDS011;42209;6.376;-10.782;2023-12-04T08:17:08;7.78;;;5.05;;
56299;SDS011;42209;6.376;-10.782;2023-12-04T08:19:37;11.60;;;5.07;;
56299;SDS011;42209;6.376;-10.782;2023-12-04T08:22:06;8.05;;;5.10;;
56299;SDS011;42209;6.376;-10.782;2023-12-04T08:24:34;10.68;;;5.25;;
56299;SDS011;42209;6.376;-10.782;2023-12-04T08:27:02;12.95;;;5.40;;
56299;SDS011;42209;6.376;-10.782;2023-12-04T08:31:59;9.50;;;6.22;;
56299;SDS011;42209;6.376;-10.782;2023-12-04T08:34:27;9.70;;;5.25;;
56299;SDS011;42209;6.376;-10.782;2023-12-04T08:36:56;10.77;;;5.75;;
56299;SDS011;42209;6.376;-10.782;2023-12-04T08:39:24;8.05;;;5.32;;
56299;SDS011;42209;6.376;-10.782;2023-12-04T08:41:53;12.00;;;6.15;;
56299;SDS011;42209;6.376;-10.782;2023-12-04T08:44:30;10.05;;;4.53;;
56299;SDS011;42209;6.376;-10.782;2023-12-04T08:46:59;9.05;;;5.22;;
56299;SDS011;42209;6.376;-10.782;2023-12-04T08:49:27;10.18;;;5.50;;
56299;SDS011;42209;6.376;-10.782;2023-12-04T08:52:09;8.45;;;4.22;;
56299;SDS011;42209;6.376;-10.782;2023-12-04T08:54:40;7.90;;;4.70;;
56299;SDS011;42209;6.376;-10.782;2023-12-04T08:57:09;10.48;;;5.10;;
56299;SDS011;42209;6.376;-10.782;2023-12-04T09:02:06;10.60;;;5.13;;
56299;SDS011;42209;6.376;-10.782;2023-12-04T09:04:38;7.45;;;5.00;;
56299;SDS011;42209;6.376;-10.782;2023-12-04T09:07:06;7.95;;;5.18;;
56299;SDS011;42209;6.376;-10.782;2023-12-04T09:09:38;7.35;;;4.90;;
56299;SDS011;42209;6.376;-10.782;2023-12-04T09:12:06;9.48;;;4.85;;
56299;SDS011;42209;6.376;-10.782;2023-12-04T09:14:35;5.95;;;4.72;;
56299;SDS011;42209;6.376;-10.782;2023-12-04T09:17:04;9.50;;;5.43;;
56299;SDS011;42209;6.376;-10.782;2023-12-04T09:19:32;7.53;;;4.72;;
56299;SDS011;42209;6.376;-10.782;2023-12-04T09:22:02;7.35;;;4.57;;
56299;SDS011;42209;6.376;-10.782;2023-12-04T09:24:43;10.68;;;4.35;;
56299;SDS011;42209;6.376;-10.782;2023-12-04T09:29:42;6.28;;;4.20;;
56299;SDS011;42209;6.376;-10.782;2023-12-04T09:32:11;6.35;;;4.13;;
56299;SDS011;42209;6.376;-10.782;2023-12-04T09:34:39;7.93;;;4.40;;
56299;SDS011;42209;6.376;-10.782;2023-12-04T09:37:07;7.50;;;4.32;;
56299;SDS011;42209;6.376;-10.782;2023-12-04T09:39:38;7.03;;;4.63;;
56299;SDS011;42209;6.376;-10.782;2023-12-04T09:42:07;6.25;;;4.38;;
56299;SDS011;42209;6.376;-10.782;2023-12-04T09:44:37;5.38;;;3.58;;
56299;SDS011;42209;6.376;-10.782;2023-12-04T09:47:06;6.65;;;4.30;;
56299;SDS011;42209;6.376;-10.782;2023-12-04T09:49:36;7.60;;;4.22;;
56299;SDS011;42209;6.376;-10.782;2023-12-04T09:52:06;7.25;;;4.40;;
56299;SDS011;42209;6.376;-10.782;2023-12-04T09:54:35;6.13;;;4.28;;
56299;SDS011;42209;6.376;-10.782;2023-12-04T09:57:05;6.95;;;3.88;;
56299;SDS011;42209;6.376;-10.782;2023-12-04T10:02:02;6.45;;;3.80;;
56299;SDS011;42209;6.376;-10.782;2023-12-04T10:04:31;5.78;;;4.07;;
56299;SDS011;42209;6.376;-10.782;2023-12-04T10:06:59;6.97;;;3.55;;
56299;SDS011;42209;6.376;-10.782;2023-12-04T10:09:28;10.73;;;4.45;;
56299;SDS011;42209;6.376;-10.782;2023-12-04T10:11:57;6.88;;;4.28;;
56299;SDS011;42209;6.376;-10.782;2023-12-04T10:14:27;8.30;;;4.53;;
56299;SDS011;42209;6.376;-10.782;2023-12-04T10:16:55;7.75;;;3.95;;
56299;SDS011;42209;6.376;-10.782;2023-12-04T10:19:24;7.90;;;3.88;;
56299;SDS011;42209;6.376;-10.782;2023-12-04T10:21:55;9.02;;;4.35;;
56299;SDS011;42209;6.376;-10.782;2023-12-04T10:24:39;10.48;;;5.30;;
56299;SDS011;42209;6.376;-10.782;2023-12-04T10:27:08;7.07;;;3.90;;
56299;SDS011;42209;6.376;-10.782;2023-12-04T10:29:47;7.78;;;4.18;;
56299;SDS011;42209;6.376;-10.782;2023-12-04T10:32:19;6.13;;;3.30;;
56299;SDS011;42209;6.376;-10.782;2023-12-04T10:34:49;6.93;;;3.63;;
56299;SDS011;42209;6.376;-10.782;2023-12-04T10:37:17;7.72;;;3.85;;
56299;SDS011;42209;6.376;-10.782;2023-12-04T10:39:48;4.85;;;3.63;;
56299;SDS011;42209;6.376;-10.782;2023-12-04T10:42:24;6.50;;;3.72;;
56299;SDS011;42209;6.376;-10.782;2023-12-04T10:44:56;7.85;;;3.78;;
56299;SDS011;42209;6.376;-10.782;2023-12-04T10:47:26;5.85;;;4.00;;
56299;SDS011;42209;6.376;-10.782;2023-12-04T10:49:58;6.10;;;4.45;;
56299;SDS011;42209;6.376;-10.782;2023-12-04T10:52:27;6.68;;;3.90;;
56299;SDS011;42209;6.376;-10.782;2023-12-04T10:54:57;8.18;;;4.10;;
56299;SDS011;42209;6.376;-10.782;2023-12-04T10:57:33;7.78;;;4.03;;
56299;SDS011;42209;6.376;-10.782;2023-12-04T11:00:06;7.75;;;4.15;;
56299;SDS011;42209;6.376;-10.782;2023-12-04T11:02:38;5.82;;;3.85;;
56299;SDS011;42209;6.376;-10.782;2023-12-04T11:05:12;5.63;;;3.65;;
56299;SDS011;42209;6.376;-10.782;2023-12-04T11:07:50;6.97;;;4.70;;
56299;SDS011;42209;6.376;-10.782;2023-12-04T11:10:43;9.32;;;3.90;;
56299;SDS011;42209;6.376;-10.782;2023-12-04T11:13:17;9.38;;;4.63;;
56299;SDS011;42209;6.376;-10.782;2023-12-04T11:15:50;12.00;;;4.35;;
56299;SDS011;42209;6.376;-10.782;2023-12-04T11:18:23;12.45;;;4.28;;
56299;SDS011;42209;6.376;-10.782;2023-12-04T11:21:04;11.32;;;4.55;;
56299;SDS011;42209;6.376;-10.782;2023-12-04T11:23:35;8.85;;;4.78;;
56299;SDS011;42209;6.376;-10.782;2023-12-04T11:26:05;8.40;;;4.07;;
56299;SDS011;42209;6.376;-10.782;2023-12-04T11:28:36;7.38;;;3.85;;
56299;SDS011;42209;6.376;-10.782;2023-12-04T11:31:05;8.93;;;4.20;;
56299;SDS011;42209;6.376;-10.782;2023-12-04T11:33:35;10.05;;;3.90;;
56299;SDS011;42209;6.376;-10.782;2023-12-04T11:36:11;7.85;;;3.83;;
56299;SDS011;42209;6.376;-10.782;2023-12-04T11:38:44;12.02;;;4.03;;
56299;SDS011;42209;6.376;-10.782;2023-12-04T11:41:20;6.95;;;4.10;;
56299;SDS011;42209;6.376;-10.782;2023-12-04T11:43:56;4.55;;;3.28;;
56299;SDS011;42209;6.376;-10.782;2023-12-04T11:46:26;6.05;;;3.80;;
56299;SDS011;42209;6.376;-10.782;2023-12-04T11:49:26;5.65;;;3.10;;
56299;SDS011;42209;6.376;-10.782;2023-12-04T11:51:53;4.63;;;3.40;;
56299;SDS011;42209;6.376;-10.782;2023-12-04T11:57:19;6.07;;;3.10;;
56299;SDS011;42209;6.376;-10.782;2023-12-04T11:59:48;5.47;;;3.45;;
56299;SDS011;42209;6.376;-10.782;2023-12-04T12:02:17;7.85;;;2.80;;
56299;SDS011;42209;6.376;-10.782;2023-12-04T12:04:46;7.95;;;3.00;;
56299;SDS011;42209;6.376;-10.782;2023-12-04T12:07:15;6.93;;;2.92;;
56299;SDS011;42209;6.376;-10.782;2023-12-04T12:09:43;6.35;;;3.50;;
56299;SDS011;42209;6.376;-10.782;2023-12-04T12:12:14;6.50;;;3.08;;
56299;SDS011;42209;6.376;-10.782;2023-12-04T12:14:43;6.63;;;2.55;;
56299;SDS011;42209;6.376;-10.782;2023-12-04T12:17:11;5.45;;;3.08;;
56299;SDS011;42209;6.376;-10.782;2023-12-04T12:19:39;6.25;;;3.28;;
56299;SDS011;42209;6.376;-10.782;2023-12-04T12:22:08;6.05;;;2.92;;
56299;SDS011;42209;6.376;-10.782;2023-12-04T12:24:37;7.45;;;3.58;;
56299;SDS011;42209;6.376;-10.782;2023-12-04T12:29:34;3.92;;;2.42;;
56299;SDS011;42209;6.376;-10.782;2023-12-04T12:32:03;4.85;;;2.92;;
56299;SDS011;42209;6.376;-10.782;2023-12-04T12:34:32;5.47;;;3.08;;
56299;SDS011;42209;6.376;-10.782;2023-12-04T12:37:00;5.43;;;2.80;;
56299;SDS011;42209;6.376;-10.782;2023-12-04T12:39:32;5.45;;;2.17;;
56299;SDS011;42209;6.376;-10.782;2023-12-04T12:42:01;6.75;;;2.88;;
56299;SDS011;42209;6.376;-10.782;2023-12-04T12:47:04;6.80;;;2.85;;
56299;SDS011;42209;6.376;-10.782;2023-12-04T12:49:33;3.63;;;2.60;;
56299;SDS011;42209;6.376;-10.782;2023-12-04T12:52:07;2.92;;;1.80;;
56299;SDS011;42209;6.376;-10.782;2023-12-04T12:54:40;5.68;;;2.85;;
56299;SDS011;42209;6.376;-10.782;2023-12-04T12:57:10;3.90;;;2.33;;
56299;SDS011;42209;6.376;-10.782;2023-12-04T12:59:40;3.65;;;2.30;;
56299;SDS011;42209;6.376;-10.782;2023-12-04T13:02:08;3.97;;;2.53;;
56299;SDS011;42209;6.376;-10.782;2023-12-04T13:07:08;2.72;;;2.00;;
56299;SDS011;42209;6.376;-10.782;2023-12-04T13:09:36;6.10;;;3.20;;
56299;SDS011;42209;6.376;-10.782;2023-12-04T13:12:05;5.07;;;1.98;;
56299;SDS011;42209;6.376;-10.782;2023-12-04T13:14:34;4.15;;;2.70;;
56299;SDS011;42209;6.376;-10.782;2023-12-04T13:17:03;7.88;;;3.13;;
56299;SDS011;42209;6.376;-10.782;2023-12-04T13:19:32;6.00;;;2.47;;
56299;SDS011;42209;6.376;-10.782;2023-12-04T13:22:00;4.03;;;2.55;;
56299;SDS011;42209;6.376;-10.782;2023-12-04T13:24:29;5.75;;;2.35;;
56299;SDS011;42209;6.376;-10.782;2023-12-04T13:26:57;4.75;;;1.67;;
56299;SDS011;42209;6.376;-10.782;2023-12-04T13:29:26;7.32;;;2.63;;
56299;SDS011;42209;6.376;-10.782;2023-12-04T13:31:54;8.50;;;3.00;;
56299;SDS011;42209;6.376;-10.782;2023-12-04T13:34:22;5.65;;;2.45;;
56299;SDS011;42209;6.376;-10.782;2023-12-04T13:36:51;6.82;;;2.70;;
56299;SDS011;42209;6.376;-10.782;2023-12-04T13:39:20;4.40;;;1.95;;
56299;SDS011;42209;6.376;-10.782;2023-12-04T13:41:48;4.13;;;2.17;;
56299;SDS011;42209;6.376;-10.782;2023-12-04T13:44:17;4.13;;;2.22;;
56299;SDS011;42209;6.376;-10.782;2023-12-04T13:46:45;3.53;;;2.13;;
56299;SDS011;42209;6.376;-10.782;2023-12-04T13:49:14;3.65;;;2.10;;
56299;SDS011;42209;6.376;-10.782;2023-12-04T13:51:42;6.45;;;2.42;;
56299;SDS011;42209;6.376;-10.782;2023-12-04T13:54:10;5.40;;;2.28;;
56299;SDS011;42209;6.376;-10.782;2023-12-04T13:56:39;5.15;;;2.33;;
56299;SDS011;42209;6.376;-10.782;2023-12-04T13:59:07;6.25;;;2.35;;
56299;SDS011;42209;6.376;-10.782;2023-12-04T14:01:36;3.50;;;2.13;;
56299;SDS011;42209;6.376;-10.782;2023-12-04T14:04:05;5.72;;;2.55;;
56299;SDS011;42209;6.376;-10.782;2023-12-04T14:06:34;2.65;;;1.88;;
56299;SDS011;42209;6.376;-10.782;2023-12-04T14:09:03;5.25;;;2.35;;
56299;SDS011;42209;6.376;-10.782;2023-12-04T14:11:32;4.35;;;2.38;;
56299;SDS011;42209;6.376;-10.782;2023-12-04T14:14:00;5.25;;;1.83;;
56299;SDS011;42209;6.376;-10.782;2023-12-04T14:16:29;5.47;;;2.80;;
56299;SDS011;42209;6.376;-10.782;2023-12-04T14:18:58;5.88;;;2.17;;
56299;SDS011;42209;6.376;-10.782;2023-12-04T14:26:23;2.70;;;2.00;;
56299;SDS011;42209;6.376;-10.782;2023-12-04T14:28:52;2.25;;;1.80;;
56299;SDS011;42209;6.376;-10.782;2023-12-04T14:31:20;3.80;;;1.63;;
56299;SDS011;42209;6.376;-10.782;2023-12-04T14:33:48;3.97;;;2.25;;
56299;SDS011;42209;6.376;-10.782;2023-12-04T14:36:17;5.10;;;2.17;;
56299;SDS011;42209;6.376;-10.782;2023-12-04T14:38:45;4.18;;;2.38;;
56299;SDS011;42209;6.376;-10.782;2023-12-04T14:41:13;387.42;;;35.67;;
56299;SDS011;42209;6.376;-10.782;2023-12-04T14:43:42;33.08;;;5.60;;
56299;SDS011;42209;6.376;-10.782;2023-12-04T14:46:10;31.85;;;4.95;;
56299;SDS011;42209;6.376;-10.782;2023-12-04T14:48:39;20.40;;;3.10;;
56299;SDS011;42209;6.376;-10.782;2023-12-04T14:51:08;19.25;;;3.28;;
56299;SDS011;42209;6.376;-10.782;2023-12-04T14:53:40;15.18;;;3.50;;
56299;SDS011;42209;6.376;-10.782;2023-12-04T14:56:10;10.85;;;3.08;;
56299;SDS011;42209;6.376;-10.782;2023-12-04T14:58:38;6.30;;;3.28;;
56299;SDS011;42209;6.376;-10.782;2023-12-04T15:01:07;8.95;;;2.25;;
56299;SDS011;42209;6.376;-10.782;2023-12-04T15:03:35;8.43;;;3.08;;
56299;SDS011;42209;6.376;-10.782;2023-12-04T15:06:04;7.75;;;2.05;;
56299;SDS011;42209;6.376;-10.782;2023-12-04T15:08:33;8.50;;;2.25;;
56299;SDS011;42209;6.376;-10.782;2023-12-04T15:11:01;11.52;;;1.95;;
56299;SDS011;42209;6.376;-10.782;2023-12-04T15:13:31;8.52;;;2.08;;
56299;SDS011;42209;6.376;-10.782;2023-12-04T15:15:59;5.10;;;1.95;;
56299;SDS011;42209;6.376;-10.782;2023-12-04T15:18:28;4.25;;;1.70;;
56299;SDS011;42209;6.376;-10.782;2023-12-04T15:20:56;5.55;;;2.05;;
56299;SDS011;42209;6.376;-10.782;2023-12-04T15:23:25;5.10;;;1.65;;
56299;SDS011;42209;6.376;-10.782;2023-12-04T15:25:53;3.30;;;1.50;;
56299;SDS011;42209;6.376;-10.782;2023-12-04T15:28:23;6.35;;;2.10;;
56299;SDS011;42209;6.376;-10.782;2023-12-04T15:30:51;5.75;;;1.88;;
56299;SDS011;42209;6.376;-10.782;2023-12-04T15:33:21;6.55;;;2.22;;
56299;SDS011;42209;6.376;-10.782;2023-12-04T15:35:50;5.30;;;1.80;;
56299;SDS011;42209;6.376;-10.782;2023-12-04T15:38:18;2.72;;;1.88;;
56299;SDS011;42209;6.376;-10.782;2023-12-04T15:40:47;3.75;;;1.23;;
56299;SDS011;42209;6.376;-10.782;2023-12-04T15:43:15;6.55;;;2.47;;
56299;SDS011;42209;6.376;-10.782;2023-12-04T15:45:44;5.70;;;1.52;;